createdAt,value
2022-10-05T00:01:43.756Z,42.12
2022-10-05T00:04:18.644Z,41.93
2022-10-05T00:06:46.865Z,42.35
2022-10-05T00:09:18.545Z,44.03
2022-10-05T00:11:45.688Z,43.88
2022-10-05T00:14:33.028Z,43.58
2022-10-05T00:17:01.073Z,42.88
2022-10-05T00:19:33.017Z,42.37
2022-10-05T00:22:01.335Z,42.34
2022-10-05T00:24:28.449Z,42.23
2022-10-05T00:26:58.110Z,42.52
2022-10-05T00:29:25.789Z,42.03
2022-10-05T00:31:52.949Z,41.59
2022-10-05T00:34:20.138Z,41.40
2022-10-05T00:36:48.021Z,41.23
2022-10-05T00:39:15.422Z,41.02
2022-10-05T00:42:01.219Z,40.85
2022-10-05T00:44:41.190Z,41.32
2022-10-05T00:47:18.186Z,41.16
2022-10-05T00:49:52.685Z,41.09
2022-10-05T00:52:23.577Z,41.92
2022-10-05T00:54:50.941Z,41.86
2022-10-05T00:57:21.602Z,41.97
2022-10-05T00:59:56.102Z,41.94
2022-10-05T01:02:34.405Z,42.12
2022-10-05T01:05:03.828Z,42.23
2022-10-05T01:07:31.666Z,42.58
2022-10-05T01:10:17.702Z,42.79
2022-10-05T01:13:06.667Z,43.08
2022-10-05T01:15:41.620Z,41.98
2022-10-05T01:18:17.233Z,41.76
2022-10-05T01:21:13.888Z,41.57
2022-10-05T01:23:59.999Z,42.01
2022-10-05T01:26:45.386Z,41.83
2022-10-05T01:29:19.144Z,41.70
2022-10-05T01:31:55.293Z,41.48
2022-10-05T01:34:26.147Z,42.34
2022-10-05T01:36:56.305Z,42.24
2022-10-05T01:39:26.689Z,42.21
2022-10-05T01:42:13.448Z,42.20
2022-10-05T01:44:42.777Z,42.29
2022-10-05T01:47:37.568Z,42.39
2022-10-05T01:50:08.167Z,42.07
2022-10-05T01:52:38.518Z,41.68
2022-10-05T01:55:24.767Z,41.42
2022-10-05T01:57:51.854Z,41.50
2022-10-05T02:00:19.593Z,41.62
2022-10-05T02:02:57.250Z,41.52
2022-10-05T02:05:24.891Z,41.62
2022-10-05T02:07:53.911Z,41.27
2022-10-05T02:10:44.357Z,41.63
2022-10-05T02:13:13.660Z,41.62
2022-10-05T02:15:43.194Z,41.08
2022-10-05T02:18:11.214Z,40.87
2022-10-05T02:20:39.191Z,41.40
2022-10-05T02:23:11.565Z,41.33
2022-10-05T02:25:39.671Z,40.85
2022-10-05T02:28:08.791Z,41.06
2022-10-05T02:30:38.274Z,41.34
2022-10-05T02:33:07.326Z,41.18
2022-10-05T02:35:34.742Z,41.41
2022-10-05T02:38:01.878Z,40.78
2022-10-05T02:40:49.060Z,40.90
2022-10-05T02:43:16.442Z,41.13
2022-10-05T02:45:50.875Z,41.00
2022-10-05T02:48:38.590Z,40.53
2022-10-05T02:51:08.725Z,40.60
2022-10-05T02:53:44.881Z,40.43
2022-10-05T02:56:18.255Z,40.80
2022-10-05T02:58:45.612Z,40.78
2022-10-05T03:01:31.907Z,40.53
2022-10-05T03:03:59.251Z,41.03
2022-10-05T03:06:27.580Z,41.11
2022-10-05T03:09:05.747Z,41.09
2022-10-05T03:11:52.435Z,40.64
2022-10-05T03:14:25.857Z,40.35
2022-10-05T03:17:05.557Z,40.99
2022-10-05T03:19:32.649Z,40.79
2022-10-05T03:22:09.971Z,40.38
2022-10-05T03:24:37.759Z,40.35
2022-10-05T03:27:17.341Z,40.47
2022-10-05T03:29:47.663Z,40.24
2022-10-05T03:32:15.155Z,40.25
2022-10-05T03:34:45.494Z,40.62
2022-10-05T03:37:15.627Z,40.57
2022-10-05T03:39:49.503Z,40.48
2022-10-05T03:42:25.128Z,40.77
2022-10-05T03:44:52.543Z,41.13
2022-10-05T03:47:25.541Z,41.34
2022-10-05T03:50:19.258Z,41.22
2022-10-05T03:52:58.677Z,41.05
2022-10-05T03:55:30.310Z,41.12
2022-10-05T03:57:58.446Z,41.08
2022-10-05T04:00:27.573Z,40.80
2022-10-05T04:03:14.080Z,41.01
2022-10-05T04:05:51.953Z,40.89
2022-10-05T04:08:19.407Z,40.51
2022-10-05T04:10:48.308Z,40.42
2022-10-05T04:13:34.427Z,40.02
2022-10-05T04:16:04.486Z,39.91
2022-10-05T04:18:36.137Z,39.78
2022-10-05T04:21:08.849Z,40.00
2022-10-05T04:23:39.386Z,40.12
2022-10-05T04:26:09.063Z,39.93
2022-10-05T04:28:36.265Z,40.25
2022-10-05T04:31:03.854Z,39.89
2022-10-05T04:33:31.894Z,40.04
2022-10-05T04:35:59.393Z,40.30
2022-10-05T04:38:29.558Z,40.19
2022-10-05T04:40:59.865Z,40.06
2022-10-05T04:43:30.030Z,40.14
2022-10-05T04:46:03.492Z,40.14
2022-10-05T04:48:30.557Z,39.90
2022-10-05T04:51:05.501Z,39.78
2022-10-05T04:53:35.500Z,39.72
2022-10-05T04:56:12.898Z,39.78
2022-10-05T04:58:42.523Z,39.57
2022-10-05T05:01:10.829Z,39.82
2022-10-05T05:03:48.987Z,39.67
2022-10-05T05:06:36.175Z,39.33
2022-10-05T05:09:10.071Z,39.51
2022-10-05T05:11:47.032Z,39.74
2022-10-05T05:14:17.461Z,39.88
2022-10-05T05:16:46.412Z,40.11
2022-10-05T05:19:52.671Z,40.13
2022-10-05T05:22:36.190Z,40.12
2022-10-05T05:25:22.489Z,40.34
2022-10-05T05:27:54.827Z,39.76
2022-10-05T05:30:23.996Z,40.06
2022-10-05T05:33:05.101Z,40.36
2022-10-05T05:35:41.710Z,40.70
2022-10-05T05:38:27.791Z,40.43
2022-10-05T05:41:08.188Z,40.61
2022-10-05T05:43:54.826Z,40.51
2022-10-05T05:46:58.262Z,40.76
2022-10-05T05:49:30.974Z,44.95
2022-10-05T05:51:59.723Z,48.66
2022-10-05T05:54:29.957Z,47.76
2022-10-05T05:57:08.093Z,45.80
2022-10-05T05:59:41.543Z,44.14
2022-10-05T06:02:13.099Z,42.67
2022-10-05T06:04:40.903Z,45.54
2022-10-05T06:07:10.281Z,47.61
2022-10-05T06:09:39.904Z,46.85
2022-10-05T06:12:12.700Z,48.97
2022-10-05T06:14:39.791Z,48.08
2022-10-05T06:17:11.747Z,45.92
2022-10-05T06:19:39.233Z,44.53
2022-10-05T06:22:25.309Z,43.36
2022-10-05T06:24:53.336Z,44.90
2022-10-05T06:27:27.266Z,48.68
2022-10-05T06:29:54.848Z,45.85
2022-10-05T06:32:35.285Z,49.18
2022-10-05T06:35:08.912Z,47.17
2022-10-05T06:37:42.270Z,47.95
2022-10-05T06:40:31.318Z,46.64
2022-10-05T06:43:02.194Z,46.35
2022-10-05T06:45:56.922Z,44.28
2022-10-05T06:48:38.103Z,44.27
2022-10-05T06:51:14.667Z,44.23
2022-10-05T06:53:45.842Z,45.20
2022-10-05T06:56:16.871Z,44.29
2022-10-05T06:59:03.885Z,45.63
2022-10-05T07:01:34.297Z,45.05
2022-10-05T07:04:20.133Z,45.14
2022-10-05T07:07:01.736Z,45.92
2022-10-05T07:09:48.471Z,44.73
2022-10-05T07:12:16.114Z,44.64
2022-10-05T07:14:51.837Z,44.90
2022-10-05T07:17:19.219Z,44.70
2022-10-05T07:19:58.687Z,46.73
2022-10-05T07:22:41.653Z,45.56
2022-10-05T07:25:08.826Z,45.57
2022-10-05T07:27:38.722Z,45.66
2022-10-05T07:30:12.842Z,44.83
2022-10-05T07:32:41.013Z,43.83
2022-10-05T07:35:34.645Z,45.52
2022-10-05T07:38:11.475Z,46.53
2022-10-05T07:40:42.821Z,45.52
2022-10-05T07:43:14.485Z,45.17
2022-10-05T07:45:42.349Z,45.65
2022-10-05T07:48:19.538Z,45.91
2022-10-05T07:50:55.730Z,45.73
2022-10-05T07:53:25.000Z,46.34
2022-10-05T07:55:53.430Z,46.36
2022-10-05T07:58:28.924Z,46.34
2022-10-05T08:01:08.170Z,46.07
2022-10-05T08:03:39.961Z,45.59
2022-10-05T08:06:07.339Z,45.01
2022-10-05T08:08:53.934Z,45.04
2022-10-05T08:11:25.407Z,44.18
2022-10-05T08:13:56.415Z,42.86
2022-10-05T08:16:25.285Z,41.75
2022-10-05T08:18:57.054Z,42.10
2022-10-05T08:21:31.558Z,42.03
2022-10-05T08:24:00.527Z,42.22
2022-10-05T08:26:39.988Z,43.69
2022-10-05T08:29:25.708Z,41.26
2022-10-05T08:31:57.168Z,42.24
2022-10-05T08:34:47.673Z,40.72
2022-10-05T08:37:28.556Z,41.37
2022-10-05T08:39:58.700Z,40.41
2022-10-05T08:42:29.166Z,41.30
2022-10-05T08:45:11.394Z,43.64
2022-10-05T08:47:38.738Z,43.46
2022-10-05T08:50:38.357Z,41.79
2022-10-05T08:53:05.692Z,40.96
2022-10-05T08:55:34.950Z,42.48
2022-10-05T08:58:20.997Z,41.67
2022-10-05T09:00:51.904Z,42.52
2022-10-05T09:03:37.948Z,43.47
2022-10-05T09:06:24.162Z,42.17
2022-10-05T09:09:29.781Z,43.55
2022-10-05T09:12:15.962Z,43.90
2022-10-05T09:14:43.058Z,44.33
2022-10-05T09:17:13.646Z,42.80
2022-10-05T09:19:43.870Z,43.93
2022-10-05T09:22:14.261Z,42.45
2022-10-05T09:24:57.206Z,42.97
2022-10-05T09:27:30.366Z,41.62
2022-10-05T09:30:18.568Z,41.14
2022-10-05T09:33:04.881Z,41.92
2022-10-05T09:35:45.014Z,41.55
2022-10-05T09:38:31.667Z,42.10
2022-10-05T09:41:17.621Z,39.64
2022-10-05T09:43:51.946Z,39.99
2022-10-05T09:46:28.712Z,40.30
2022-10-05T09:49:22.553Z,39.21
2022-10-05T09:52:02.652Z,41.64
2022-10-05T09:54:45.386Z,40.19
2022-10-05T09:57:31.135Z,41.08
2022-10-05T10:00:21.742Z,40.33
2022-10-05T10:02:49.244Z,39.82
2022-10-05T10:05:16.353Z,41.04
2022-10-05T10:08:04.727Z,41.01
2022-10-05T10:10:52.462Z,39.60
2022-10-05T10:13:55.885Z,41.97
2022-10-05T10:16:34.333Z,40.99
2022-10-05T10:19:22.196Z,40.80
2022-10-05T10:21:52.549Z,40.23
2022-10-05T10:24:24.792Z,40.62
2022-10-05T10:27:02.206Z,41.16
2022-10-05T10:29:37.798Z,42.22
2022-10-05T10:32:05.193Z,39.66
2022-10-05T10:34:40.312Z,39.88
2022-10-05T10:37:29.841Z,38.48
2022-10-05T10:39:56.909Z,39.06
2022-10-05T10:42:26.249Z,38.23
2022-10-05T10:44:58.879Z,38.78
2022-10-05T10:47:42.484Z,38.67
2022-10-05T10:50:18.426Z,39.81
2022-10-05T10:53:04.536Z,38.88
2022-10-05T10:55:35.236Z,37.68
2022-10-05T10:58:02.560Z,38.74
2022-10-05T11:00:47.392Z,40.24
2022-10-05T11:03:33.475Z,38.52
2022-10-05T11:06:07.761Z,39.97
2022-10-05T11:08:44.188Z,38.94
2022-10-05T11:11:25.134Z,38.54
2022-10-05T11:14:11.150Z,38.71
2022-10-05T11:16:57.977Z,38.33
2022-10-05T11:19:59.616Z,39.70
2022-10-05T11:22:35.820Z,39.88
2022-10-05T11:25:11.029Z,40.84
2022-10-05T11:27:56.543Z,39.65
2022-10-05T11:30:26.915Z,40.57
2022-10-05T11:32:56.785Z,39.90
2022-10-05T11:35:27.104Z,39.55
2022-10-05T11:37:54.177Z,37.94
2022-10-05T11:40:33.208Z,37.74
2022-10-05T11:43:03.424Z,36.01
2022-10-05T11:45:36.958Z,36.57
2022-10-05T11:48:23.225Z,35.82
2022-10-05T11:51:09.171Z,36.38
2022-10-05T11:53:37.640Z,35.23
2022-10-05T11:56:21.936Z,35.76
2022-10-05T11:58:55.655Z,34.66
2022-10-05T12:01:42.835Z,34.05
2022-10-05T12:04:18.266Z,35.30
2022-10-05T12:07:04.556Z,35.83
2022-10-05T12:10:05.439Z,34.09
2022-10-05T12:12:45.137Z,33.98
2022-10-05T12:15:23.481Z,32.13
2022-10-05T12:18:00.121Z,33.06
2022-10-05T12:20:40.762Z,32.45
2022-10-05T12:23:13.069Z,33.89
2022-10-05T12:25:43.633Z,33.94
2022-10-05T12:28:15.787Z,33.92
2022-10-05T12:30:58.727Z,33.63
2022-10-05T12:33:45.110Z,33.30
2022-10-05T12:36:17.285Z,34.20
2022-10-05T12:38:44.731Z,34.38
2022-10-05T12:41:18.714Z,33.95
2022-10-05T12:43:50.056Z,34.89
2022-10-05T12:46:49.639Z,34.17
2022-10-05T12:49:19.968Z,33.90
2022-10-05T12:51:56.110Z,33.70
2022-10-05T12:54:35.057Z,33.33
2022-10-05T12:57:13.082Z,32.44
2022-10-05T13:00:00.759Z,32.06
2022-10-05T13:02:42.300Z,33.50
2022-10-05T13:05:09.637Z,32.47
2022-10-05T13:07:38.599Z,33.04
2022-10-05T13:10:09.004Z,33.05
2022-10-05T13:12:47.928Z,32.47
2022-10-05T13:15:23.944Z,33.39
2022-10-05T13:18:18.223Z,33.07
2022-10-05T13:20:57.937Z,32.70
2022-10-05T13:23:31.372Z,32.32
2022-10-05T13:26:01.742Z,32.23
2022-10-05T13:28:35.457Z,32.71
2022-10-05T13:31:07.220Z,33.90
2022-10-05T13:33:49.981Z,32.28
2022-10-05T13:36:18.975Z,32.86
2022-10-05T13:38:46.576Z,32.21
2022-10-05T13:41:45.938Z,32.89
2022-10-05T13:44:18.950Z,31.74
2022-10-05T13:46:49.835Z,31.55
2022-10-05T13:49:22.061Z,32.38
2022-10-05T13:51:59.005Z,32.65
2022-10-05T13:54:45.373Z,32.03
2022-10-05T13:57:48.026Z,32.79
2022-10-05T14:00:18.794Z,32.92
2022-10-05T14:02:53.123Z,32.30
2022-10-05T14:05:27.181Z,32.32
2022-10-05T14:08:04.146Z,31.84
2022-10-05T14:10:40.635Z,32.52
2022-10-05T14:13:27.807Z,33.56
2022-10-05T14:16:13.525Z,34.37
2022-10-05T14:19:11.245Z,33.47
2022-10-05T14:21:57.110Z,32.44
2022-10-05T14:24:43.579Z,32.36
2022-10-05T14:27:18.201Z,33.70
2022-10-05T14:29:45.601Z,32.86
2022-10-05T14:32:13.771Z,34.79
2022-10-05T14:34:59.843Z,33.69
2022-10-05T14:37:32.106Z,34.45
2022-10-05T14:40:03.369Z,33.96
2022-10-05T14:42:31.976Z,34.06
2022-10-05T14:45:00.243Z,34.51
2022-10-05T14:47:30.260Z,33.67
2022-10-05T14:50:14.002Z,34.67
2022-10-05T14:52:43.137Z,32.75
2022-10-05T14:55:17.773Z,34.93
2022-10-05T14:57:52.057Z,36.37
2022-10-05T15:00:19.588Z,33.74
2022-10-05T15:02:58.977Z,33.73
2022-10-05T15:05:45.212Z,34.69
2022-10-05T15:08:31.286Z,34.98
2022-10-05T15:11:20.210Z,36.45
2022-10-05T15:13:50.239Z,35.45
2022-10-05T15:16:24.992Z,35.62
2022-10-05T15:18:58.232Z,36.91
2022-10-05T15:21:32.401Z,35.50
2022-10-05T15:24:00.952Z,35.02
2022-10-05T15:26:36.267Z,35.63
2022-10-05T15:29:06.205Z,37.02
2022-10-05T15:31:39.388Z,34.88
2022-10-05T15:34:11.444Z,34.48
2022-10-05T15:36:54.161Z,35.69
2022-10-05T15:39:25.342Z,36.17
2022-10-05T15:41:55.450Z,37.36
2022-10-05T15:44:36.406Z,37.53
2022-10-05T15:47:05.206Z,36.67
2022-10-05T15:49:50.928Z,37.32
2022-10-05T15:52:23.905Z,37.18
2022-10-05T15:55:09.572Z,35.92
2022-10-05T15:57:55.647Z,36.13
2022-10-05T16:00:23.220Z,36.88
2022-10-05T16:02:52.096Z,35.48
2022-10-05T16:05:59.500Z,37.70
2022-10-05T16:08:51.342Z,36.65
2022-10-05T16:11:30.712Z,35.95
2022-10-05T16:14:17.477Z,38.15
2022-10-05T16:17:00.715Z,38.16
2022-10-05T16:19:47.040Z,37.48
2022-10-05T16:22:22.222Z,36.31
2022-10-05T16:25:01.950Z,37.22
2022-10-05T16:27:42.101Z,37.93
2022-10-05T16:30:10.495Z,38.77
2022-10-05T16:32:38.566Z,38.69
2022-10-05T16:35:10.779Z,38.37
2022-10-05T16:37:45.342Z,37.81
2022-10-05T16:40:15.182Z,38.09
2022-10-05T16:43:01.487Z,37.52
2022-10-05T16:45:46.871Z,38.11
2022-10-05T16:48:23.647Z,37.97
2022-10-05T16:51:09.799Z,38.27
2022-10-05T16:53:38.636Z,38.17
2022-10-05T16:56:10.360Z,37.99
2022-10-05T16:58:56.424Z,37.76
2022-10-05T17:01:23.567Z,38.13
2022-10-05T17:03:53.759Z,38.44
2022-10-05T17:06:31.090Z,39.14
2022-10-05T17:09:12.018Z,39.70
2022-10-05T17:12:01.050Z,39.09
2022-10-05T17:14:31.422Z,38.53
2022-10-05T17:17:15.826Z,38.63
2022-10-05T17:19:53.160Z,38.73
2022-10-05T17:22:23.610Z,38.45
2022-10-05T17:24:50.941Z,38.87
2022-10-05T17:27:18.071Z,38.78
2022-10-05T17:29:47.661Z,39.09
2022-10-05T17:32:15.711Z,38.54
2022-10-05T17:35:03.035Z,38.85
2022-10-05T17:37:36.606Z,39.55
2022-10-05T17:40:28.609Z,39.20
2022-10-05T17:43:01.181Z,39.09
2022-10-05T17:45:31.378Z,39.34
2022-10-05T17:47:59.527Z,39.87
2022-10-05T17:50:57.997Z,40.02
2022-10-05T17:54:02.440Z,39.55
2022-10-05T17:56:33.775Z,40.60
2022-10-05T17:59:02.675Z,40.24
2022-10-05T18:01:31.573Z,39.96
2022-10-05T18:04:11.294Z,39.90
2022-10-05T18:06:38.691Z,40.00
2022-10-05T18:09:20.753Z,40.58
2022-10-05T18:12:06.602Z,40.68
2022-10-05T18:14:52.683Z,39.53
2022-10-05T18:17:42.363Z,41.09
2022-10-05T18:20:28.422Z,40.10
2022-10-05T18:23:01.524Z,40.50
2022-10-05T18:25:29.637Z,39.84
2022-10-05T18:28:06.199Z,40.34
2022-10-05T18:30:39.400Z,40.81
2022-10-05T18:33:33.352Z,40.44
2022-10-05T18:36:00.894Z,41.15
2022-10-05T18:38:31.021Z,40.31
2022-10-05T18:41:18.361Z,40.78
2022-10-05T18:43:55.419Z,40.45
2022-10-05T18:46:22.923Z,41.23
2022-10-05T18:48:50.338Z,40.91
2022-10-05T18:51:31.571Z,40.91
2022-10-05T18:53:59.272Z,40.45
2022-10-05T18:56:45.764Z,41.08
2022-10-05T18:59:18.569Z,41.11
2022-10-05T19:01:50.778Z,39.48
2022-10-05T19:04:24.650Z,40.23
2022-10-05T19:06:52.147Z,39.96
2022-10-05T19:09:34.903Z,40.41
2022-10-05T19:12:09.319Z,41.31
2022-10-05T19:14:37.904Z,40.04
2022-10-05T19:17:08.084Z,40.79
2022-10-05T19:19:38.594Z,40.28
2022-10-05T19:22:25.144Z,40.89
2022-10-05T19:24:55.736Z,40.62
2022-10-05T19:27:27.728Z,40.71
2022-10-05T19:30:01.338Z,40.53
2022-10-05T19:32:47.161Z,40.06
2022-10-05T19:35:19.367Z,40.25
2022-10-05T19:37:59.219Z,39.75
2022-10-05T19:40:28.043Z,40.35
2022-10-05T19:43:01.635Z,39.80
2022-10-05T19:45:29.612Z,39.92
2022-10-05T19:48:07.668Z,39.77
2022-10-05T19:50:35.620Z,40.26
2022-10-05T19:53:13.327Z,40.61
2022-10-05T19:55:41.787Z,39.92
2022-10-05T19:58:26.221Z,40.48
2022-10-05T20:00:53.714Z,40.71
2022-10-05T20:03:29.107Z,41.31
2022-10-05T20:05:57.436Z,40.51
2022-10-05T20:08:32.217Z,41.06
2022-10-05T20:11:06.975Z,41.07
2022-10-05T20:13:35.335Z,41.18
2022-10-05T20:16:25.362Z,41.14
2022-10-05T20:19:11.521Z,40.91
2022-10-05T20:21:52.048Z,41.15
2022-10-05T20:24:25.959Z,40.67
2022-10-05T20:27:06.237Z,40.87
2022-10-05T20:29:40.997Z,40.98
2022-10-05T20:32:12.676Z,41.12
2022-10-05T20:34:41.539Z,41.05
2022-10-05T20:37:11.807Z,41.23
2022-10-05T20:39:39.033Z,41.52
2022-10-05T20:42:07.425Z,41.10
2022-10-05T20:44:34.946Z,41.21
2022-10-05T20:47:02.120Z,40.63
2022-10-05T20:49:31.041Z,40.68
2022-10-05T20:51:58.543Z,40.40
2022-10-05T20:54:25.985Z,40.67
2022-10-05T20:56:54.908Z,40.61
2022-10-05T20:59:22.536Z,40.74
2022-10-05T21:01:49.698Z,40.83
2022-10-05T21:04:17.925Z,40.76
2022-10-05T21:06:45.179Z,40.32
2022-10-05T21:09:14.927Z,40.36
2022-10-05T21:11:42.615Z,40.13
2022-10-05T21:14:10.343Z,40.55
2022-10-05T21:16:38.341Z,40.56
2022-10-05T21:19:14.700Z,40.17
2022-10-05T21:21:42.637Z,39.89
2022-10-05T21:24:11.200Z,39.97
2022-10-05T21:26:38.313Z,40.13
2022-10-05T21:29:10.239Z,39.80
2022-10-05T21:31:40.042Z,39.73
2022-10-05T21:34:07.311Z,39.60
2022-10-05T21:36:36.026Z,39.96
2022-10-05T21:39:03.477Z,40.17
2022-10-05T21:41:30.611Z,39.92
2022-10-05T21:43:57.811Z,39.66
2022-10-05T21:46:28.156Z,39.37
2022-10-05T21:48:55.877Z,39.70
2022-10-05T21:51:23.934Z,39.49
2022-10-05T21:53:58.419Z,39.60
2022-10-05T21:56:26.187Z,40.01
2022-10-05T21:58:53.642Z,40.00
2022-10-05T22:01:22.898Z,39.93
2022-10-05T22:03:50.573Z,39.99
2022-10-05T22:06:17.689Z,39.61
2022-10-05T22:08:45.016Z,39.59
2022-10-05T22:11:13.588Z,39.57
2022-10-05T22:13:41.988Z,39.79
2022-10-05T22:16:09.143Z,39.89
2022-10-05T22:18:36.534Z,40.06
2022-10-05T22:21:04.562Z,40.03
2022-10-05T22:23:33.666Z,39.66
2022-10-05T22:26:01.047Z,39.93
2022-10-05T22:28:28.464Z,39.75
2022-10-05T22:30:56.016Z,39.87
2022-10-05T22:33:23.404Z,40.09
2022-10-05T22:35:50.583Z,40.49
2022-10-05T22:38:17.688Z,40.33
2022-10-05T22:40:45.063Z,40.11
2022-10-05T22:43:12.308Z,39.98
2022-10-05T22:45:39.550Z,39.98
2022-10-05T22:48:06.951Z,39.75
2022-10-05T22:50:34.135Z,39.64
2022-10-05T22:53:01.313Z,39.57
2022-10-05T22:55:29.581Z,39.67
2022-10-05T22:57:56.691Z,39.63
2022-10-05T23:00:35.164Z,39.54
2022-10-05T23:03:08.027Z,39.58
2022-10-05T23:05:35.233Z,39.68
2022-10-05T23:08:02.359Z,39.63
2022-10-05T23:10:29.750Z,39.86
2022-10-05T23:13:00.742Z,39.89
2022-10-05T23:15:28.314Z,39.81
2022-10-05T23:17:57.382Z,40.08
2022-10-05T23:20:24.790Z,39.95
2022-10-05T23:22:51.942Z,39.85
2022-10-05T23:25:19.421Z,39.59
2022-10-05T23:27:46.528Z,39.55
2022-10-05T23:30:13.675Z,39.79
2022-10-05T23:32:41.579Z,39.96
2022-10-05T23:35:09.406Z,39.69
2022-10-05T23:37:37.459Z,40.10
2022-10-05T23:40:05.887Z,39.92
2022-10-05T23:42:33.015Z,40.09
2022-10-05T23:45:00.168Z,40.22
2022-10-05T23:47:27.538Z,40.72
2022-10-05T23:49:55.478Z,40.32
2022-10-05T23:52:25.134Z,40.11
2022-10-05T23:54:52.550Z,39.93
2022-10-05T23:57:19.728Z,39.84
2022-10-05T23:59:47.082Z,39.69
